createdAt,value
2023-05-10T00:00:14.873Z,96.36
2023-05-10T00:01:14.464Z,96.36
2023-05-10T00:02:14.540Z,96.26
2023-05-10T00:03:14.535Z,96.56
2023-05-10T00:04:14.552Z,96.36
2023-05-10T00:05:14.435Z,96.97
2023-05-10T00:06:14.423Z,96.56
2023-05-10T00:07:14.538Z,96.92
2023-05-10T00:08:14.409Z,97.27
2023-05-10T00:09:14.397Z,96.92
2023-05-10T00:10:14.571Z,97.17
2023-05-10T00:11:14.389Z,97.38
2023-05-10T00:12:14.401Z,97.17
2023-05-10T00:13:14.431Z,97.27
2023-05-10T00:14:14.363Z,96.87
2023-05-10T00:15:14.354Z,97.67
2023-05-10T00:16:14.411Z,98.28
2023-05-10T00:17:14.496Z,97.78
2023-05-10T00:18:14.325Z,97.78
2023-05-10T00:19:14.334Z,97.78
2023-05-10T00:20:14.485Z,97.78
2023-05-10T00:21:14.309Z,97.98
2023-05-10T00:22:14.323Z,97.98
2023-05-10T00:23:14.296Z,98.08
2023-05-10T00:24:14.302Z,98.18
2023-05-10T00:25:14.276Z,97.88
2023-05-10T00:26:14.260Z,98.14
2023-05-10T00:27:14.536Z,98.08
2023-05-10T00:28:14.253Z,98.14
2023-05-10T00:29:14.253Z,97.88
2023-05-10T00:30:14.398Z,97.94
2023-05-10T00:31:14.228Z,97.47
2023-05-10T00:32:14.402Z,97.78
2023-05-10T00:33:14.217Z,97.98
2023-05-10T00:34:14.209Z,98.39
2023-05-10T00:35:14.202Z,98.49
2023-05-10T00:36:14.626Z,98.59
2023-05-10T00:37:14.197Z,98.59
2023-05-10T00:38:14.185Z,98.69
2023-05-10T00:39:14.170Z,98.69
2023-05-10T00:40:14.329Z,99.19
2023-05-10T00:41:14.180Z,99.19
2023-05-10T00:42:14.145Z,98.99
2023-05-10T00:43:14.149Z,99.60
2023-05-10T00:44:14.139Z,99.40
2023-05-10T00:45:14.127Z,99.30
2023-05-10T00:46:14.151Z,99.50
2023-05-10T00:47:14.126Z,99.75
2023-05-10T00:48:14.105Z,99.65
2023-05-10T00:49:14.133Z,99.99
2023-05-10T00:50:14.394Z,99.99
2023-05-10T00:51:14.108Z,99.99
2023-05-10T00:52:14.093Z,99.99
2023-05-10T00:53:14.081Z,99.99
2023-05-10T00:54:14.055Z,99.99
2023-05-10T00:55:14.055Z,99.99
2023-05-10T00:56:14.065Z,99.99
2023-05-10T00:57:14.034Z,99.99
2023-05-10T00:58:14.046Z,99.99
2023-05-10T00:59:14.025Z,99.99
2023-05-10T01:00:14.111Z,99.99
2023-05-10T01:01:14.035Z,99.99
2023-05-10T01:02:14.025Z,99.99
2023-05-10T01:03:14.112Z,99.99
2023-05-10T01:04:13.991Z,99.99
2023-05-10T01:05:14.038Z,99.99
2023-05-10T01:06:13.985Z,99.99
2023-05-10T01:07:14.001Z,99.99
2023-05-10T01:08:13.954Z,99.99
2023-05-10T01:09:13.946Z,99.99
2023-05-10T01:10:14.141Z,99.99
2023-05-10T01:11:13.934Z,99.99
2023-05-10T01:12:13.970Z,99.99
2023-05-10T01:13:13.937Z,99.99
2023-05-10T01:14:13.908Z,99.99
2023-05-10T01:15:13.901Z,99.99
2023-05-10T01:16:13.904Z,99.99
2023-05-10T01:17:13.909Z,99.99
2023-05-10T01:18:13.882Z,99.99
2023-05-10T01:19:13.877Z,99.99
2023-05-10T01:20:14.007Z,99.99
2023-05-10T01:21:13.864Z,99.99
2023-05-10T01:22:13.848Z,99.99
2023-05-10T01:23:13.837Z,99.99
2023-05-10T01:24:13.841Z,99.99
2023-05-10T01:25:13.831Z,99.99
2023-05-10T01:26:13.822Z,99.99
2023-05-10T01:27:13.857Z,99.99
2023-05-10T01:28:13.826Z,99.99
2023-05-10T01:29:13.800Z,99.99
2023-05-10T01:30:15.381Z,99.99
2023-05-10T01:31:14.812Z,99.99
2023-05-10T01:32:13.777Z,99.99
2023-05-10T01:33:13.806Z,99.99
2023-05-10T01:34:13.775Z,99.99
2023-05-10T01:35:13.754Z,99.99
2023-05-10T01:36:13.753Z,99.99
2023-05-10T01:37:13.745Z,99.99
2023-05-10T01:38:13.740Z,99.99
2023-05-10T01:39:13.737Z,99.99
2023-05-10T01:40:13.811Z,99.99
2023-05-10T01:41:13.711Z,99.99
2023-05-10T01:42:13.717Z,99.99
2023-05-10T01:43:13.698Z,99.99
2023-05-10T01:44:13.694Z,99.99
2023-05-10T01:45:13.710Z,99.99
2023-05-10T01:46:13.724Z,99.99
2023-05-10T01:47:13.699Z,99.99
2023-05-10T01:48:13.665Z,99.99
2023-05-10T01:49:13.659Z,99.99
2023-05-10T01:50:13.886Z,99.99
2023-05-10T01:51:13.655Z,99.99
2023-05-10T01:52:13.656Z,99.99
2023-05-10T01:53:13.648Z,99.99
2023-05-10T01:54:13.624Z,99.99
2023-05-10T01:55:13.844Z,99.99
2023-05-10T01:56:13.607Z,99.99
2023-05-10T01:57:13.608Z,99.99
2023-05-10T01:58:13.604Z,99.99
2023-05-10T01:59:13.590Z,99.99
2023-05-10T02:00:13.679Z,99.99
2023-05-10T02:01:13.609Z,99.99
2023-05-10T02:02:13.570Z,99.99
2023-05-10T02:03:13.628Z,99.99
2023-05-10T02:04:13.626Z,99.99
2023-05-10T02:05:13.544Z,99.99
2023-05-10T02:06:13.556Z,99.99
2023-05-10T02:07:13.530Z,99.99
2023-05-10T02:08:13.513Z,99.99
2023-05-10T02:09:13.506Z,99.99
2023-05-10T02:10:13.649Z,99.99
2023-05-10T02:11:13.815Z,99.99
2023-05-10T02:12:13.484Z,99.99
2023-05-10T02:13:13.511Z,99.99
2023-05-10T02:14:13.485Z,99.99
2023-05-10T02:15:13.480Z,99.99
2023-05-10T02:16:13.529Z,99.99
2023-05-10T02:17:13.457Z,99.99
2023-05-10T02:18:13.447Z,99.99
2023-05-10T02:19:13.455Z,99.99
2023-05-10T02:20:13.542Z,99.99
2023-05-10T02:21:13.464Z,99.99
2023-05-10T02:22:13.426Z,99.99
2023-05-10T02:23:13.402Z,99.99
2023-05-10T02:24:13.410Z,99.99
2023-05-10T02:25:13.394Z,99.99
2023-05-10T02:26:13.389Z,99.99
2023-05-10T02:27:13.395Z,99.99
2023-05-10T02:28:13.378Z,99.99
2023-05-10T02:29:13.368Z,99.99
2023-05-10T02:30:13.393Z,99.99
2023-05-10T02:31:13.357Z,99.99
2023-05-10T02:32:13.482Z,99.99
2023-05-10T02:33:13.345Z,99.99
2023-05-10T02:34:13.332Z,99.99
2023-05-10T02:35:13.320Z,99.99
2023-05-10T02:36:13.327Z,99.99
2023-05-10T02:37:13.318Z,99.99
2023-05-10T02:38:13.308Z,99.99
2023-05-10T02:39:13.311Z,99.99
2023-05-10T02:40:13.297Z,99.99
2023-05-10T02:41:13.294Z,99.99
2023-05-10T02:42:13.288Z,99.99
2023-05-10T02:43:13.267Z,99.99
2023-05-10T02:44:13.280Z,99.99
2023-05-10T02:45:13.271Z,99.99
2023-05-10T02:46:13.293Z,99.99
2023-05-10T02:47:13.244Z,99.99
2023-05-10T02:48:13.301Z,99.99
2023-05-10T02:49:13.253Z,99.99
2023-05-10T02:50:13.279Z,99.99
2023-05-10T02:51:13.235Z,99.99
2023-05-10T02:52:13.217Z,99.99
2023-05-10T02:53:13.204Z,99.99
2023-05-10T02:54:13.197Z,99.99
2023-05-10T02:55:13.189Z,99.99
2023-05-10T02:56:13.202Z,99.99
2023-05-10T02:57:13.171Z,99.99
2023-05-10T02:58:13.179Z,99.99
2023-05-10T02:59:13.156Z,99.99
2023-05-10T03:00:13.158Z,99.99
2023-05-10T03:01:13.178Z,98.88
2023-05-10T03:02:13.145Z,99.02
2023-05-10T03:03:13.129Z,98.82
2023-05-10T03:04:13.176Z,98.62
2023-05-10T03:05:13.152Z,98.72
2023-05-10T03:06:13.125Z,98.47
2023-05-10T03:07:13.097Z,98.27
2023-05-10T03:08:13.095Z,98.37
2023-05-10T03:09:13.093Z,98.47
2023-05-10T03:10:13.107Z,98.47
2023-05-10T03:11:13.108Z,98.37
2023-05-10T03:12:13.084Z,98.37
2023-05-10T03:13:13.145Z,97.96
2023-05-10T03:14:13.047Z,98.37
2023-05-10T03:15:13.041Z,98.12
2023-05-10T03:16:13.116Z,98.22
2023-05-10T03:17:13.052Z,98.43
2023-05-10T03:18:13.026Z,97.31
2023-05-10T03:19:13.017Z,97.41
2023-05-10T03:20:13.031Z,96.50
2023-05-10T03:21:12.989Z,96.39
2023-05-10T03:22:13.012Z,96.60
2023-05-10T03:23:12.982Z,96.35
2023-05-10T03:24:13.967Z,96.45
2023-05-10T03:25:12.965Z,96.75
2023-05-10T03:26:12.960Z,96.80
2023-05-10T03:27:12.964Z,96.35
2023-05-10T03:28:12.952Z,96.35
2023-05-10T03:29:12.950Z,95.54
2023-05-10T03:30:12.961Z,95.79
2023-05-10T03:31:12.969Z,96.80
2023-05-10T03:32:12.937Z,96.70
2023-05-10T03:33:12.904Z,96.60
2023-05-10T03:34:12.906Z,97.25
2023-05-10T03:35:12.891Z,96.84
2023-05-10T03:36:12.893Z,97.66
2023-05-10T03:37:12.895Z,97.25
2023-05-10T03:38:12.873Z,97.25
2023-05-10T03:39:12.861Z,97.45
2023-05-10T03:40:12.884Z,97.45
2023-05-10T03:41:12.844Z,97.56
2023-05-10T03:42:12.951Z,98.68
2023-05-10T03:43:12.838Z,98.16
2023-05-10T03:44:12.847Z,98.16
2023-05-10T03:45:12.819Z,98.16
2023-05-10T03:46:12.947Z,98.16
2023-05-10T03:47:12.797Z,98.22
2023-05-10T03:48:12.838Z,98.27
2023-05-10T03:49:12.832Z,98.27
2023-05-10T03:50:12.789Z,97.86
2023-05-10T03:51:12.786Z,98.27
2023-05-10T03:52:12.774Z,97.66
2023-05-10T03:53:12.779Z,98.37
2023-05-10T03:54:12.761Z,98.32
2023-05-10T03:55:12.751Z,98.12
2023-05-10T03:56:12.734Z,98.37
2023-05-10T03:57:12.749Z,98.16
2023-05-10T03:58:12.721Z,98.12
2023-05-10T03:59:12.719Z,98.12
2023-05-10T04:00:12.730Z,98.02
2023-05-10T04:01:12.710Z,98.22
2023-05-10T04:02:12.724Z,98.32
2023-05-10T04:03:12.822Z,98.57
2023-05-10T04:04:12.797Z,98.47
2023-05-10T04:05:12.685Z,98.68
2023-05-10T04:06:12.738Z,98.97
2023-05-10T04:07:12.688Z,98.97
2023-05-10T04:08:12.651Z,98.97
2023-05-10T04:09:12.657Z,98.92
2023-05-10T04:10:12.660Z,98.88
2023-05-10T04:11:12.642Z,98.92
2023-05-10T04:12:12.633Z,98.72
2023-05-10T04:13:12.670Z,99.02
2023-05-10T04:14:12.648Z,99.43
2023-05-10T04:15:12.616Z,99.33
2023-05-10T04:16:12.648Z,99.74
2023-05-10T04:17:12.699Z,99.99
2023-05-10T04:18:12.594Z,99.74
2023-05-10T04:19:12.583Z,99.74
2023-05-10T04:20:12.581Z,99.48
2023-05-10T04:21:12.564Z,99.53
2023-05-10T04:22:13.570Z,99.58
2023-05-10T04:23:12.567Z,99.33
2023-05-10T04:24:13.510Z,99.02
2023-05-10T04:25:12.537Z,99.74
2023-05-10T04:26:12.523Z,99.38
2023-05-10T04:27:12.512Z,99.58
2023-05-10T04:28:13.526Z,99.68
2023-05-10T04:29:12.533Z,99.07
2023-05-10T04:30:12.529Z,99.58
2023-05-10T04:31:12.664Z,99.48
2023-05-10T04:32:12.484Z,99.27
2023-05-10T04:33:12.477Z,99.17
2023-05-10T04:34:12.483Z,99.17
2023-05-10T04:35:12.465Z,98.56
2023-05-10T04:36:12.462Z,98.66
2023-05-10T04:37:12.455Z,98.77
2023-05-10T04:38:12.446Z,98.56
2023-05-10T04:39:12.427Z,98.41
2023-05-10T04:40:12.434Z,97.39
2023-05-10T04:41:12.433Z,97.60
2023-05-10T04:42:12.469Z,97.69
2023-05-10T04:43:12.416Z,97.24
2023-05-10T04:44:12.424Z,97.75
2023-05-10T04:45:12.431Z,97.44
2023-05-10T04:46:12.426Z,97.34
2023-05-10T04:47:12.806Z,96.63
2023-05-10T04:48:13.379Z,96.83
2023-05-10T04:49:12.364Z,96.83
2023-05-10T04:50:12.373Z,96.33
2023-05-10T04:51:12.364Z,96.53
2023-05-10T04:52:12.446Z,96.94
2023-05-10T04:53:13.997Z,96.23
2023-05-10T04:54:12.356Z,96.33
2023-05-10T04:55:12.319Z,96.73
2023-05-10T04:56:14.005Z,97.04
2023-05-10T04:57:12.315Z,96.63
2023-05-10T04:58:12.332Z,96.73
2023-05-10T04:59:12.293Z,97.14
2023-05-10T05:00:12.290Z,97.04
2023-05-10T05:01:12.326Z,96.73
2023-05-10T05:02:12.274Z,96.68
2023-05-10T05:03:12.366Z,97.19
2023-05-10T05:04:12.296Z,97.08
2023-05-10T05:05:12.263Z,97.89
2023-05-10T05:06:12.372Z,98.41
2023-05-10T05:07:12.256Z,98.41
2023-05-10T05:08:12.237Z,98.61
2023-05-10T05:09:12.250Z,98.61
2023-05-10T05:10:12.232Z,98.71
2023-05-10T05:11:12.224Z,98.91
2023-05-10T05:12:12.202Z,98.50
2023-05-10T05:13:12.232Z,98.91
2023-05-10T05:14:12.187Z,99.02
2023-05-10T05:15:12.171Z,99.02
2023-05-10T05:16:12.282Z,98.81
2023-05-10T05:17:12.185Z,98.61
2023-05-10T05:18:12.198Z,98.61
2023-05-10T05:19:12.159Z,99.11
2023-05-10T05:20:12.162Z,98.81
2023-05-10T05:21:12.177Z,99.16
2023-05-10T05:22:12.150Z,99.02
2023-05-10T05:23:12.155Z,98.50
2023-05-10T05:24:12.135Z,98.35
2023-05-10T05:25:12.131Z,98.05
2023-05-10T05:26:12.129Z,98.50
2023-05-10T05:27:12.117Z,99.02
2023-05-10T05:28:12.113Z,99.06
2023-05-10T05:29:12.095Z,98.91
2023-05-10T05:30:12.122Z,99.06
2023-05-10T05:31:12.109Z,99.32
2023-05-10T05:32:12.173Z,99.52
2023-05-10T05:33:12.158Z,99.02
2023-05-10T05:34:12.068Z,99.16
2023-05-10T05:35:12.059Z,99.77
2023-05-10T05:36:12.088Z,99.52
2023-05-10T05:37:12.078Z,99.88
2023-05-10T05:38:12.162Z,99.98
2023-05-10T05:39:12.072Z,99.99
2023-05-10T05:40:12.023Z,99.99
2023-05-10T05:41:12.034Z,99.98
2023-05-10T05:42:12.005Z,99.99
2023-05-10T05:43:12.015Z,99.99
2023-05-10T05:44:11.999Z,99.99
2023-05-10T05:45:12.001Z,99.99
2023-05-10T05:46:12.096Z,99.99
2023-05-10T05:47:11.987Z,99.99
2023-05-10T05:48:11.987Z,99.99
2023-05-10T05:49:12.016Z,99.99
2023-05-10T05:50:12.014Z,99.99
2023-05-10T05:51:11.945Z,99.99
2023-05-10T05:52:11.951Z,99.99
2023-05-10T05:53:11.965Z,99.99
2023-05-10T05:54:11.924Z,99.99
2023-05-10T05:55:11.949Z,99.99
2023-05-10T05:56:11.917Z,99.83
2023-05-10T05:57:11.923Z,99.77
2023-05-10T05:58:11.919Z,99.67
2023-05-10T05:59:11.899Z,99.99
2023-05-10T06:00:11.894Z,99.77
2023-05-10T06:01:11.878Z,99.83
2023-05-10T06:02:11.924Z,99.99
2023-05-10T06:03:11.965Z,99.52
2023-05-10T06:04:11.934Z,99.37
2023-05-10T06:05:11.867Z,99.52
2023-05-10T06:06:11.854Z,99.57
2023-05-10T06:07:11.844Z,99.52
2023-05-10T06:08:11.836Z,99.27
2023-05-10T06:09:11.856Z,99.88
2023-05-10T06:10:11.970Z,99.57
2023-05-10T06:11:11.821Z,99.57
2023-05-10T06:12:11.812Z,99.83
2023-05-10T06:13:11.827Z,99.83
2023-05-10T06:14:11.822Z,99.52
2023-05-10T06:15:11.792Z,99.63
2023-05-10T06:16:11.830Z,99.42
2023-05-10T06:17:11.779Z,99.22
2023-05-10T06:18:11.812Z,99.11
2023-05-10T06:19:11.765Z,98.91
2023-05-10T06:20:11.776Z,99.02
2023-05-10T06:21:11.760Z,99.11
2023-05-10T06:22:11.758Z,99.11
2023-05-10T06:23:11.742Z,99.11
2023-05-10T06:24:11.740Z,99.22
2023-05-10T06:25:11.765Z,99.83
2023-05-10T06:26:11.726Z,99.42
2023-05-10T06:27:11.722Z,99.99
2023-05-10T06:28:11.717Z,99.99
2023-05-10T06:29:11.706Z,99.93
2023-05-10T06:30:13.417Z,99.99
2023-05-10T06:31:12.717Z,99.93
2023-05-10T06:32:11.682Z,99.99
2023-05-10T06:33:11.724Z,99.99
2023-05-10T06:34:11.666Z,99.99
2023-05-10T06:35:11.691Z,99.99
2023-05-10T06:36:11.658Z,99.99
2023-05-10T06:37:11.655Z,99.99
2023-05-10T06:38:11.646Z,99.63
2023-05-10T06:39:11.633Z,99.99
2023-05-10T06:40:11.656Z,99.99
2023-05-10T06:41:11.630Z,99.88
2023-05-10T06:42:11.650Z,98.77
2023-05-10T06:43:11.621Z,98.56
2023-05-10T06:44:11.627Z,98.66
2023-05-10T06:45:11.611Z,98.36
2023-05-10T06:46:11.653Z,98.36
2023-05-10T06:47:11.606Z,98.56
2023-05-10T06:48:11.615Z,97.34
2023-05-10T06:49:11.573Z,96.79
2023-05-10T06:50:11.559Z,96.79
2023-05-10T06:51:11.589Z,96.79
2023-05-10T06:52:11.559Z,96.64
2023-05-10T06:53:11.552Z,96.64
2023-05-10T06:54:11.553Z,96.75
2023-05-10T06:55:11.537Z,96.03
2023-05-10T06:56:11.548Z,96.75
2023-05-10T06:57:23.442Z,95.53
2023-05-10T06:58:13.513Z,94.82
2023-05-10T06:59:11.516Z,94.46
2023-05-10T07:00:11.521Z,94.46
2023-05-10T07:01:11.652Z,94.53
2023-05-10T07:02:11.562Z,94.73
2023-05-10T07:03:11.502Z,92.54
2023-05-10T07:04:11.471Z,92.13
2023-05-10T07:05:11.455Z,92.70
2023-05-10T07:06:21.808Z,92.80
2023-05-10T07:07:13.450Z,92.44
2023-05-10T07:08:11.431Z,92.90
2023-05-10T07:09:11.426Z,92.13
2023-05-10T07:10:11.424Z,92.40
2023-05-10T07:11:11.437Z,92.40
2023-05-10T07:12:13.406Z,92.33
2023-05-10T07:13:11.445Z,92.44
2023-05-10T07:14:11.399Z,92.54
2023-05-10T07:15:11.405Z,92.84
2023-05-10T07:16:11.406Z,93.15
2023-05-10T07:17:11.462Z,92.64
2023-05-10T07:18:11.411Z,92.33
2023-05-10T07:19:11.372Z,92.80
2023-05-10T07:20:11.360Z,93.45
2023-05-10T07:21:11.411Z,93.00
2023-05-10T07:22:11.339Z,93.10
2023-05-10T07:23:11.339Z,93.45
2023-05-10T07:24:11.331Z,93.30
2023-05-10T07:25:11.320Z,93.25
2023-05-10T07:26:11.301Z,92.80
2023-05-10T07:27:11.324Z,93.61
2023-05-10T07:28:11.285Z,93.41
2023-05-10T07:29:11.294Z,92.29
2023-05-10T07:30:11.282Z,92.19
2023-05-10T07:31:11.291Z,92.40
2023-05-10T07:32:11.325Z,92.40
2023-05-10T07:33:11.311Z,91.89
2023-05-10T07:34:11.252Z,91.68
2023-05-10T07:35:11.252Z,91.68
2023-05-10T07:36:11.232Z,92.45
2023-05-10T07:37:11.231Z,91.44
2023-05-10T07:38:11.220Z,92.25
2023-05-10T07:39:12.652Z,92.45
2023-05-10T07:40:11.199Z,90.18
2023-05-10T07:41:11.189Z,90.99
2023-05-10T07:42:11.190Z,91.46
2023-05-10T07:43:11.205Z,90.38
2023-05-10T07:44:11.211Z,89.32
2023-05-10T07:45:11.174Z,89.37
2023-05-10T07:46:11.269Z,89.37
2023-05-10T07:47:11.152Z,89.53
2023-05-10T07:48:11.159Z,88.51
2023-05-10T07:49:11.142Z,87.74
2023-05-10T07:50:11.143Z,87.81
2023-05-10T07:51:11.136Z,89.63
2023-05-10T07:52:11.113Z,88.21
2023-05-10T07:53:11.109Z,88.11
2023-05-10T07:54:11.101Z,88.68
2023-05-10T07:55:11.100Z,87.05
2023-05-10T07:56:11.082Z,87.36
2023-05-10T07:57:11.076Z,87.88
2023-05-10T07:58:11.080Z,87.18
2023-05-10T07:59:12.822Z,85.62
2023-05-10T08:00:12.049Z,85.90
2023-05-10T08:01:11.050Z,86.89
2023-05-10T08:02:11.059Z,82.24
2023-05-10T08:03:11.143Z,79.22
2023-05-10T08:04:11.068Z,78.47
2023-05-10T08:05:11.020Z,78.23
2023-05-10T08:06:11.005Z,78.00
2023-05-10T08:07:11.009Z,79.37
2023-05-10T08:08:11.003Z,77.19
2023-05-10T08:09:11.019Z,73.80
2023-05-10T08:10:10.987Z,75.01
2023-05-10T08:11:10.993Z,75.01
2023-05-10T08:12:10.962Z,71.30
2023-05-10T08:13:10.969Z,70.89
2023-05-10T08:14:10.980Z,71.77
2023-05-10T08:15:10.967Z,73.13
2023-05-10T08:16:10.985Z,71.20
2023-05-10T08:17:10.941Z,69.09
2023-05-10T08:18:10.958Z,71.13
2023-05-10T08:19:10.989Z,71.20
2023-05-10T08:20:10.932Z,68.19
2023-05-10T08:21:10.908Z,68.72
2023-05-10T08:22:10.937Z,68.72
2023-05-10T08:23:10.898Z,69.26
2023-05-10T08:24:10.885Z,69.66
2023-05-10T08:25:10.895Z,70.83
2023-05-10T08:26:10.892Z,70.73
2023-05-10T08:27:10.872Z,69.82
2023-05-10T08:28:11.939Z,71.66
2023-05-10T08:29:10.875Z,72.60
2023-05-10T08:30:10.897Z,71.16
2023-05-10T08:31:10.930Z,68.82
2023-05-10T08:32:10.955Z,65.99
2023-05-10T08:33:10.887Z,66.43
2023-05-10T08:34:10.837Z,66.73
2023-05-10T08:35:10.858Z,65.40
2023-05-10T08:36:10.808Z,65.60
2023-05-10T08:37:10.800Z,62.20
2023-05-10T08:38:10.836Z,64.00
2023-05-10T08:39:22.901Z,64.07
2023-05-10T08:40:12.794Z,63.74
2023-05-10T08:41:10.786Z,60.97
2023-05-10T08:42:10.812Z,62.34
2023-05-10T08:43:10.776Z,62.29
2023-05-10T08:44:10.753Z,62.65
2023-05-10T08:45:10.743Z,60.53
2023-05-10T08:46:10.745Z,58.64
2023-05-10T08:47:10.808Z,60.24
2023-05-10T08:48:10.796Z,57.97
2023-05-10T08:49:10.728Z,60.29
2023-05-10T08:50:10.730Z,59.47
2023-05-10T08:51:10.717Z,60.30
2023-05-10T08:52:10.709Z,59.95
2023-05-10T08:53:10.720Z,56.34
2023-05-10T08:54:10.703Z,57.90
2023-05-10T08:55:10.686Z,58.17
2023-05-10T08:56:10.692Z,57.48
2023-05-10T08:57:10.683Z,56.32
2023-05-10T08:58:10.662Z,56.68
2023-05-10T08:59:10.667Z,55.00
2023-05-10T09:00:10.650Z,54.50
2023-05-10T09:01:10.690Z,54.30
2023-05-10T09:02:10.637Z,55.00
2023-05-10T09:03:10.710Z,53.61
2023-05-10T09:04:10.784Z,52.59
2023-05-10T09:05:10.665Z,53.26
2023-05-10T09:06:10.631Z,54.42
2023-05-10T09:07:10.617Z,54.17
2023-05-10T09:08:10.642Z,52.01
2023-05-10T09:09:10.604Z,50.66
2023-05-10T09:10:10.602Z,48.22
2023-05-10T09:11:10.590Z,47.78
2023-05-10T09:12:10.581Z,46.42
2023-05-10T09:13:10.565Z,46.48
2023-05-10T09:14:10.587Z,47.15
2023-05-10T09:15:10.588Z,47.69
2023-05-10T09:16:21.213Z,48.50
2023-05-10T09:17:12.606Z,49.32
2023-05-10T09:18:10.555Z,49.86
2023-05-10T09:19:10.616Z,48.02
2023-05-10T09:20:10.585Z,51.84
2023-05-10T09:21:10.519Z,52.99
2023-05-10T09:22:10.502Z,53.31
2023-05-10T09:23:10.506Z,57.43
2023-05-10T09:24:10.514Z,57.46
2023-05-10T09:25:10.569Z,57.33
2023-05-10T09:26:10.485Z,57.33
2023-05-10T09:27:10.504Z,57.28
2023-05-10T09:28:10.506Z,54.66
2023-05-10T09:29:10.467Z,56.47
2023-05-10T09:30:10.544Z,53.61
2023-05-10T09:31:10.480Z,49.29
2023-05-10T09:32:10.458Z,48.52
2023-05-10T09:33:10.437Z,51.84
2023-05-10T09:34:10.436Z,52.24
2023-05-10T09:35:10.436Z,50.50
2023-05-10T09:36:10.430Z,53.81
2023-05-10T09:37:10.421Z,54.86
2023-05-10T09:38:10.421Z,55.51
2023-05-10T09:39:10.399Z,56.26
2023-05-10T09:40:11.395Z,56.44
2023-05-10T09:41:10.385Z,58.59
2023-05-10T09:42:10.380Z,58.76
2023-05-10T09:43:10.370Z,58.97
2023-05-10T09:44:10.362Z,59.17
2023-05-10T09:45:10.380Z,59.06
2023-05-10T09:46:10.398Z,58.47
2023-05-10T09:47:10.344Z,58.67
2023-05-10T09:48:10.364Z,59.17
2023-05-10T09:49:10.370Z,57.46
2023-05-10T09:50:10.357Z,59.09
2023-05-10T09:51:10.350Z,60.46
2023-05-10T09:52:10.586Z,59.59
2023-05-10T09:53:10.370Z,61.02
2023-05-10T09:54:10.312Z,60.82
2023-05-10T09:55:10.299Z,60.65
2023-05-10T09:56:10.294Z,61.41
2023-05-10T09:57:10.324Z,64.12
2023-05-10T09:58:10.280Z,63.54
2023-05-10T09:59:10.282Z,64.72
2023-05-10T10:00:10.264Z,63.06
2023-05-10T10:01:10.285Z,63.00
2023-05-10T10:02:10.265Z,57.00
2023-05-10T10:03:10.279Z,55.93
2023-05-10T10:04:10.251Z,53.16
2023-05-10T10:05:10.369Z,50.60
2023-05-10T10:06:18.738Z,49.41
2023-05-10T10:07:12.270Z,51.23
2023-05-10T10:08:10.215Z,52.26
2023-05-10T10:09:10.210Z,51.87
2023-05-10T10:10:10.196Z,54.90
2023-05-10T10:11:10.223Z,49.29
2023-05-10T10:12:10.198Z,50.16
2023-05-10T10:13:10.198Z,48.67
2023-05-10T10:14:10.185Z,50.41
2023-05-10T10:15:10.178Z,47.61
2023-05-10T10:16:10.209Z,46.80
2023-05-10T10:17:10.250Z,47.52
2023-05-10T10:18:10.246Z,47.89
2023-05-10T10:19:10.154Z,47.99
2023-05-10T10:20:14.627Z,45.41
2023-05-10T10:21:11.134Z,44.66
2023-05-10T10:22:10.129Z,40.62
2023-05-10T10:23:10.121Z,41.71
2023-05-10T10:24:10.123Z,42.35
2023-05-10T10:25:10.120Z,40.96
2023-05-10T10:26:10.119Z,39.80
2023-05-10T10:27:10.096Z,39.52
2023-05-10T10:28:10.116Z,38.42
2023-05-10T10:29:10.071Z,41.78
2023-05-10T10:30:10.089Z,38.88
2023-05-10T10:31:10.109Z,37.98
2023-05-10T10:32:10.080Z,38.16
2023-05-10T10:33:20.591Z,37.45
2023-05-10T10:34:12.078Z,36.87
2023-05-10T10:35:10.038Z,36.47
2023-05-10T10:36:10.028Z,35.61
2023-05-10T10:37:10.031Z,36.72
2023-05-10T10:38:10.099Z,37.04
2023-05-10T10:39:10.034Z,39.66
2023-05-10T10:40:10.024Z,36.10
2023-05-10T10:41:10.007Z,35.40
2023-05-10T10:42:10.003Z,32.35
2023-05-10T10:43:10.004Z,33.87
2023-05-10T10:44:09.996Z,36.76
2023-05-10T10:45:09.990Z,36.65
2023-05-10T10:46:09.969Z,38.36
2023-05-10T10:47:10.123Z,39.18
2023-05-10T10:48:09.962Z,39.92
2023-05-10T10:49:09.982Z,40.35
2023-05-10T10:50:09.960Z,41.09
2023-05-10T10:51:12.245Z,39.62
2023-05-10T10:52:09.946Z,38.70
2023-05-10T10:53:09.990Z,37.65
2023-05-10T10:54:09.953Z,38.78
2023-05-10T10:55:09.958Z,40.37
2023-05-10T10:56:09.930Z,40.00
2023-05-10T10:57:09.947Z,40.11
2023-05-10T10:58:09.899Z,40.43
2023-05-10T10:59:09.933Z,39.70
2023-05-10T11:00:09.919Z,42.43
2023-05-10T11:01:09.934Z,43.83
2023-05-10T11:02:09.892Z,43.95
2023-05-10T11:03:09.956Z,43.89
2023-05-10T11:04:09.925Z,44.60
2023-05-10T11:05:09.892Z,46.39
2023-05-10T11:06:09.881Z,44.68
2023-05-10T11:07:09.851Z,45.70
2023-05-10T11:08:09.863Z,46.69
2023-05-10T11:09:09.834Z,47.09
2023-05-10T11:10:09.867Z,46.89
2023-05-10T11:11:09.905Z,46.17
2023-05-10T11:12:09.854Z,46.67
2023-05-10T11:13:09.799Z,46.89
2023-05-10T11:14:09.838Z,47.11
2023-05-10T11:15:09.858Z,47.33
2023-05-10T11:16:09.853Z,47.89
2023-05-10T11:17:09.828Z,48.36
2023-05-10T11:18:09.851Z,49.70
2023-05-10T11:19:09.908Z,51.65
2023-05-10T11:20:09.794Z,51.27
2023-05-10T11:21:09.767Z,53.34
2023-05-10T11:22:09.756Z,54.27
2023-05-10T11:23:09.739Z,55.62
2023-05-10T11:24:09.733Z,57.55
2023-05-10T11:25:09.749Z,57.05
2023-05-10T11:26:09.723Z,57.57
2023-05-10T11:27:09.746Z,58.61
2023-05-10T11:28:09.712Z,60.86
2023-05-10T11:29:09.704Z,60.89
2023-05-10T11:30:09.725Z,60.52
2023-05-10T11:31:09.805Z,59.59
2023-05-10T11:32:09.695Z,59.69
2023-05-10T11:33:09.796Z,60.77
2023-05-10T11:34:09.680Z,59.33
2023-05-10T11:35:09.671Z,60.24
2023-05-10T11:36:09.682Z,61.10
2023-05-10T11:37:09.682Z,62.80
2023-05-10T11:38:09.674Z,63.00
2023-05-10T11:39:09.656Z,62.27
2023-05-10T11:40:09.670Z,60.14
2023-05-10T11:41:09.626Z,61.34
2023-05-10T11:42:09.641Z,62.67
2023-05-10T11:43:09.624Z,63.98
2023-05-10T11:44:09.616Z,63.21
2023-05-10T11:45:09.597Z,62.14
2023-05-10T11:46:09.650Z,60.66
2023-05-10T11:47:09.627Z,61.36
2023-05-10T11:48:09.686Z,61.70
2023-05-10T11:49:09.587Z,63.33
2023-05-10T11:50:09.582Z,63.73
2023-05-10T11:51:09.571Z,63.33
2023-05-10T11:52:09.569Z,65.34
2023-05-10T11:53:09.594Z,63.33
2023-05-10T11:54:09.576Z,65.50
2023-05-10T11:55:09.586Z,67.04
2023-05-10T11:56:09.549Z,66.97
2023-05-10T11:57:09.554Z,67.04
2023-05-10T11:58:09.558Z,66.44
2023-05-10T11:59:09.573Z,66.31
2023-05-10T12:00:09.517Z,66.28
2023-05-10T12:01:09.493Z,67.08
2023-05-10T12:02:09.511Z,69.72
2023-05-10T12:03:09.582Z,71.06
2023-05-10T12:04:09.809Z,72.03
2023-05-10T12:05:09.556Z,71.47
2023-05-10T12:06:09.468Z,73.32
2023-05-10T12:07:09.481Z,74.32
2023-05-10T12:08:09.453Z,74.42
2023-05-10T12:09:09.468Z,73.41
2023-05-10T12:10:09.449Z,75.76
2023-05-10T12:11:09.441Z,76.74
2023-05-10T12:12:09.420Z,75.43
2023-05-10T12:13:09.415Z,75.53
2023-05-10T12:14:09.427Z,76.37
2023-05-10T12:15:09.400Z,76.47
2023-05-10T12:16:09.408Z,77.38
2023-05-10T12:17:09.403Z,76.67
2023-05-10T12:18:09.404Z,77.11
2023-05-10T12:19:09.430Z,76.51
2023-05-10T12:20:09.366Z,76.10
2023-05-10T12:21:09.380Z,77.04
2023-05-10T12:22:09.362Z,78.26
2023-05-10T12:23:09.349Z,77.82
2023-05-10T12:24:09.368Z,77.72
2023-05-10T12:25:09.337Z,77.68
2023-05-10T12:26:09.335Z,77.31
2023-05-10T12:27:09.393Z,77.51
2023-05-10T12:28:09.363Z,78.52
2023-05-10T12:29:09.320Z,77.42
2023-05-10T12:30:09.312Z,77.11
2023-05-10T12:31:09.338Z,77.08
2023-05-10T12:32:09.456Z,77.51
2023-05-10T12:33:09.412Z,77.62
2023-05-10T12:34:09.272Z,77.55
2023-05-10T12:35:09.341Z,78.96
2023-05-10T12:36:09.271Z,79.57
2023-05-10T12:37:09.265Z,79.67
2023-05-10T12:38:09.253Z,79.16
2023-05-10T12:39:09.242Z,79.27
2023-05-10T12:40:09.259Z,80.64
2023-05-10T12:41:09.322Z,79.93
2023-05-10T12:42:09.230Z,79.53
2023-05-10T12:43:09.240Z,80.44
2023-05-10T12:44:09.230Z,81.95
2023-05-10T12:45:09.214Z,82.45
2023-05-10T12:46:09.297Z,83.97
2023-05-10T12:47:09.200Z,85.62
2023-05-10T12:48:09.237Z,83.20
2023-05-10T12:49:09.852Z,82.64
2023-05-10T12:50:09.176Z,81.42
2023-05-10T12:51:09.176Z,82.53
2023-05-10T12:52:09.168Z,83.48